createdAt,value
2019-05-19T00:00:34.496Z,979.1
2019-05-19T00:01:34.483Z,979.09
2019-05-19T00:02:34.478Z,979.09
2019-05-19T00:03:34.470Z,979.1
2019-05-19T00:04:34.543Z,979.16
2019-05-19T00:05:34.474Z,979.15
2019-05-19T00:06:34.478Z,979.16
2019-05-19T00:07:34.464Z,979.18
2019-05-19T00:08:34.456Z,979.2
2019-05-19T00:09:34.465Z,979.27
2019-05-19T00:10:35.913Z,979.25
2019-05-19T00:11:34.450Z,979.24
2019-05-19T00:12:34.502Z,979.22
2019-05-19T00:13:34.447Z,979.22
2019-05-19T00:14:34.445Z,979.2
2019-05-19T00:15:34.440Z,979.22
2019-05-19T00:16:34.439Z,979.17
2019-05-19T00:17:34.434Z,979.14
2019-05-19T00:18:34.435Z,979.13
2019-05-19T00:19:34.431Z,979.15
2019-05-19T00:20:34.429Z,979.12
2019-05-19T00:21:34.423Z,979.08
2019-05-19T00:22:34.434Z,979.08
2019-05-19T00:23:34.419Z,979.09
2019-05-19T00:24:34.431Z,979.07
2019-05-19T00:25:34.450Z,979.06
2019-05-19T00:26:34.420Z,979.04
2019-05-19T00:27:34.408Z,979.03
2019-05-19T00:28:34.415Z,979.01
2019-05-19T00:29:34.405Z,979
2019-05-19T00:30:34.404Z,979
2019-05-19T00:31:34.407Z,979.08
2019-05-19T00:32:34.402Z,979.03
2019-05-19T00:33:35.817Z,979.03
2019-05-19T00:34:34.397Z,979.02
2019-05-19T00:35:34.413Z,979.02
2019-05-19T00:36:34.389Z,978.99
2019-05-19T00:37:34.387Z,978.97
2019-05-19T00:38:34.386Z,978.96
2019-05-19T00:39:34.386Z,978.95
2019-05-19T00:40:34.380Z,978.99
2019-05-19T00:41:34.383Z,979.01
2019-05-19T00:42:34.376Z,979.08
2019-05-19T00:43:34.376Z,978.97
2019-05-19T00:44:34.374Z,979
2019-05-19T00:45:34.378Z,978.99
2019-05-19T00:46:34.367Z,978.98
2019-05-19T00:47:34.372Z,978.97
2019-05-19T00:48:34.364Z,979
2019-05-19T00:49:41.133Z,979.03
2019-05-19T00:50:34.361Z,979.03
2019-05-19T00:51:34.356Z,979.04
2019-05-19T00:52:34.363Z,979
2019-05-19T00:53:34.358Z,979.01
2019-05-19T00:54:34.350Z,979.03
2019-05-19T00:55:34.367Z,979.02
2019-05-19T00:56:37.381Z,978.99
2019-05-19T00:57:34.353Z,979.01
2019-05-19T00:58:34.344Z,978.96
2019-05-19T00:59:34.340Z,978.89
2019-05-19T01:00:34.343Z,978.96
2019-05-19T01:01:34.341Z,978.89
2019-05-19T01:02:34.332Z,978.92
2019-05-19T01:03:34.338Z,978.93
2019-05-19T01:04:34.330Z,978.89
2019-05-19T01:05:34.328Z,978.91
2019-05-19T01:06:34.365Z,978.87
2019-05-19T01:07:34.360Z,978.85
2019-05-19T01:08:34.325Z,978.89
2019-05-19T01:09:34.315Z,978.87
2019-05-19T01:10:34.316Z,978.81
2019-05-19T01:11:34.309Z,978.78
2019-05-19T01:12:34.306Z,978.79
2019-05-19T01:13:34.305Z,978.81
2019-05-19T01:14:34.306Z,978.79
2019-05-19T01:15:34.305Z,978.77
2019-05-19T01:16:34.296Z,978.78
2019-05-19T01:17:34.294Z,978.82
2019-05-19T01:18:34.294Z,978.81
2019-05-19T01:19:34.291Z,978.82
2019-05-19T01:20:34.288Z,978.77
2019-05-19T01:21:34.298Z,978.81
2019-05-19T01:22:34.289Z,978.79
2019-05-19T01:23:34.280Z,978.77
2019-05-19T01:24:34.284Z,978.8
2019-05-19T01:25:34.277Z,978.75
2019-05-19T01:26:34.282Z,978.74
2019-05-19T01:27:34.277Z,978.78
2019-05-19T01:28:34.278Z,978.76
2019-05-19T01:29:34.267Z,978.74
2019-05-19T01:30:34.309Z,978.77
2019-05-19T01:31:34.359Z,978.76
2019-05-19T01:32:34.260Z,978.8
2019-05-19T01:33:34.278Z,978.78
2019-05-19T01:34:34.253Z,978.79
2019-05-19T01:35:34.256Z,978.8
2019-05-19T01:36:34.250Z,978.83
2019-05-19T01:37:34.280Z,978.81
2019-05-19T01:38:34.252Z,978.82
2019-05-19T01:39:34.258Z,978.89
2019-05-19T01:40:34.240Z,978.82
2019-05-19T01:41:34.451Z,978.82
2019-05-19T01:42:35.649Z,978.86
2019-05-19T01:43:34.232Z,978.82
2019-05-19T01:44:34.229Z,978.86
2019-05-19T01:45:34.227Z,978.87
2019-05-19T01:46:34.237Z,978.81
2019-05-19T01:47:34.223Z,978.83
2019-05-19T01:48:34.223Z,978.82
2019-05-19T01:49:34.220Z,978.82
2019-05-19T01:50:34.232Z,978.85
2019-05-19T01:51:34.211Z,978.83
2019-05-19T01:52:34.214Z,978.82
2019-05-19T01:53:34.209Z,978.84
2019-05-19T01:54:34.206Z,978.81
2019-05-19T01:55:34.211Z,978.82
2019-05-19T01:56:34.215Z,978.83
2019-05-19T01:57:34.200Z,978.78
2019-05-19T01:58:34.197Z,978.77
2019-05-19T01:59:34.210Z,978.8
2019-05-19T02:00:34.197Z,978.75
2019-05-19T02:01:34.201Z,978.74
2019-05-19T02:02:34.187Z,978.72
2019-05-19T02:03:34.187Z,978.72
2019-05-19T02:04:34.186Z,978.71
2019-05-19T02:05:37.218Z,978.7
2019-05-19T02:06:34.179Z,978.7
2019-05-19T02:07:34.179Z,978.7
2019-05-19T02:08:34.170Z,978.71
2019-05-19T02:09:34.186Z,978.69
2019-05-19T02:10:34.168Z,978.72
2019-05-19T02:11:34.168Z,978.71
2019-05-19T02:12:34.160Z,978.73
2019-05-19T02:13:34.160Z,978.75
2019-05-19T02:14:34.160Z,978.76
2019-05-19T02:15:34.156Z,978.74
2019-05-19T02:16:34.196Z,978.77
2019-05-19T02:17:34.161Z,978.79
2019-05-19T02:18:34.148Z,978.75
2019-05-19T02:19:34.146Z,978.73
2019-05-19T02:20:34.263Z,978.75
2019-05-19T02:21:34.148Z,978.76
2019-05-19T02:22:34.139Z,978.75
2019-05-19T02:23:34.139Z,978.75
2019-05-19T02:24:34.138Z,978.71
2019-05-19T02:25:34.141Z,978.72
2019-05-19T02:26:34.155Z,978.73
2019-05-19T02:27:34.149Z,978.72
2019-05-19T02:28:34.733Z,978.74
2019-05-19T02:29:34.123Z,978.73
2019-05-19T02:30:34.126Z,978.75
2019-05-19T02:31:34.127Z,978.74
2019-05-19T02:32:34.127Z,978.77
2019-05-19T02:33:35.752Z,978.77
2019-05-19T02:34:34.127Z,978.77
2019-05-19T02:35:34.125Z,978.73
2019-05-19T02:36:34.128Z,978.75
2019-05-19T02:37:34.104Z,978.74
2019-05-19T02:38:34.100Z,978.71
2019-05-19T02:39:34.098Z,978.72
2019-05-19T02:40:34.097Z,978.69
2019-05-19T02:41:34.095Z,978.68
2019-05-19T02:42:34.091Z,978.69
2019-05-19T02:43:34.091Z,978.7
2019-05-19T02:44:34.089Z,978.69
2019-05-19T02:45:34.091Z,978.65
2019-05-19T02:46:34.098Z,978.68
2019-05-19T02:47:34.083Z,978.71
2019-05-19T02:48:34.082Z,978.69
2019-05-19T02:49:34.076Z,978.67
2019-05-19T02:50:50.769Z,978.69
2019-05-19T02:51:34.076Z,978.68
2019-05-19T02:52:35.490Z,978.67
2019-05-19T02:53:34.075Z,978.66
2019-05-19T02:54:34.058Z,978.69
2019-05-19T02:55:34.062Z,978.68
2019-05-19T02:56:34.053Z,978.71
2019-05-19T02:57:34.055Z,978.71
2019-05-19T02:58:34.050Z,978.72
2019-05-19T02:59:34.046Z,978.72
2019-05-19T03:00:34.045Z,978.73
2019-05-19T03:01:34.041Z,978.78
2019-05-19T03:02:34.040Z,978.75
2019-05-19T03:03:34.046Z,978.75
2019-05-19T03:04:34.033Z,978.74
2019-05-19T03:05:34.033Z,978.84
2019-05-19T03:06:34.029Z,978.74
2019-05-19T03:07:34.028Z,978.78
2019-05-19T03:08:34.022Z,978.75
2019-05-19T03:09:34.028Z,978.72
2019-05-19T03:10:34.019Z,978.71
2019-05-19T03:11:34.019Z,978.73
2019-05-19T03:12:34.020Z,978.73
2019-05-19T03:13:34.011Z,978.72
2019-05-19T03:14:34.033Z,978.71
2019-05-19T03:15:34.035Z,978.71
2019-05-19T03:16:34.043Z,978.74
2019-05-19T03:17:37.041Z,978.74
2019-05-19T03:18:33.995Z,978.73
2019-05-19T03:19:33.994Z,978.73
2019-05-19T03:20:33.994Z,978.69
2019-05-19T03:21:33.989Z,978.72
2019-05-19T03:22:33.986Z,978.72
2019-05-19T03:23:33.993Z,978.71
2019-05-19T03:24:33.990Z,978.75
2019-05-19T03:25:33.978Z,978.75
2019-05-19T03:26:33.976Z,978.73
2019-05-19T03:27:33.992Z,978.75
2019-05-19T03:28:34.010Z,978.77
2019-05-19T03:29:33.983Z,978.76
2019-05-19T03:30:33.973Z,978.81
2019-05-19T03:31:33.964Z,978.81
2019-05-19T03:32:33.984Z,978.87
2019-05-19T03:33:33.971Z,978.88
2019-05-19T03:34:33.971Z,978.91
2019-05-19T03:35:33.960Z,978.9
2019-05-19T03:36:33.999Z,978.92
2019-05-19T03:37:33.956Z,978.94
2019-05-19T03:38:33.950Z,978.91
2019-05-19T03:39:33.945Z,978.94
2019-05-19T03:40:34.945Z,978.94
2019-05-19T03:41:33.935Z,978.95
2019-05-19T03:42:33.931Z,978.95
2019-05-19T03:43:33.930Z,978.96
2019-05-19T03:44:33.927Z,978.95
2019-05-19T03:45:33.929Z,979
2019-05-19T03:46:33.921Z,979.02
2019-05-19T03:47:33.924Z,979
2019-05-19T03:48:33.916Z,979.03
2019-05-19T03:49:33.911Z,979.03
2019-05-19T03:50:33.906Z,979.07
2019-05-19T03:51:33.935Z,979.06
2019-05-19T03:52:40.172Z,979.01
2019-05-19T03:53:33.904Z,979.08
2019-05-19T03:54:33.905Z,979.04
2019-05-19T03:55:33.902Z,979.03
2019-05-19T03:56:33.909Z,979.04
2019-05-19T03:57:33.904Z,979
2019-05-19T03:58:33.882Z,979.05
2019-05-19T03:59:33.880Z,979.05
2019-05-19T04:00:33.879Z,978.99
2019-05-19T04:01:33.875Z,979.04
2019-05-19T04:02:33.870Z,979
2019-05-19T04:03:33.873Z,979.07
2019-05-19T04:04:33.863Z,979.02
2019-05-19T04:05:33.860Z,979.04
2019-05-19T04:06:33.862Z,979.07
2019-05-19T04:07:33.872Z,979.06
2019-05-19T04:08:33.862Z,979.15
2019-05-19T04:09:33.851Z,979.1
2019-05-19T04:10:33.856Z,979.1
2019-05-19T04:11:33.848Z,979.08
2019-05-19T04:12:33.851Z,979.06
2019-05-19T04:13:33.858Z,979.1
2019-05-19T04:14:33.841Z,979.08
2019-05-19T04:15:33.835Z,979.1
2019-05-19T04:16:33.837Z,979.1
2019-05-19T04:17:33.835Z,979.11
2019-05-19T04:18:33.828Z,979.1
2019-05-19T04:19:33.825Z,979.12
2019-05-19T04:20:33.825Z,979.14
2019-05-19T04:21:47.945Z,979.1
2019-05-19T04:22:33.821Z,979.11
2019-05-19T04:23:33.821Z,979.13
2019-05-19T04:24:33.819Z,979.12
2019-05-19T04:25:33.817Z,979.14
2019-05-19T04:26:36.851Z,979.11
2019-05-19T04:27:33.821Z,979.14
2019-05-19T04:28:33.824Z,979.13
2019-05-19T04:29:33.816Z,979.11
2019-05-19T04:30:33.810Z,979.14
2019-05-19T04:31:33.811Z,979.15
2019-05-19T04:32:33.807Z,979.11
2019-05-19T04:33:33.806Z,979.18
2019-05-19T04:34:33.807Z,979.16
2019-05-19T04:35:33.810Z,979.16
2019-05-19T04:36:33.808Z,979.12
2019-05-19T04:37:36.840Z,979.08
2019-05-19T04:38:33.801Z,979.1
2019-05-19T04:39:33.812Z,979.05
2019-05-19T04:40:33.807Z,979.08
2019-05-19T04:41:33.797Z,979.05
2019-05-19T04:42:33.796Z,979.07
2019-05-19T04:43:33.802Z,979.06
2019-05-19T04:44:33.796Z,979.05
2019-05-19T04:45:33.794Z,979.03
2019-05-19T04:46:33.799Z,979.04
2019-05-19T04:47:33.795Z,979.05
2019-05-19T04:48:33.792Z,978.99
2019-05-19T04:49:33.799Z,979.02
2019-05-19T04:50:33.784Z,979
2019-05-19T04:51:33.789Z,978.98
2019-05-19T04:52:33.783Z,978.98
2019-05-19T04:53:33.792Z,978.97
2019-05-19T04:54:33.780Z,978.97
2019-05-19T04:55:33.781Z,979
2019-05-19T04:56:33.779Z,978.98
2019-05-19T04:57:33.778Z,978.98
2019-05-19T04:58:33.813Z,978.97
2019-05-19T04:59:33.779Z,978.99
2019-05-19T05:00:36.843Z,978.95
2019-05-19T05:01:33.775Z,978.99
2019-05-19T05:02:33.771Z,978.99
2019-05-19T05:03:33.769Z,978.98
2019-05-19T05:04:33.770Z,978.98
2019-05-19T05:05:33.769Z,978.97
2019-05-19T05:06:33.768Z,978.99
2019-05-19T05:07:33.767Z,978.99
2019-05-19T05:08:33.768Z,978.97
2019-05-19T05:09:33.765Z,979.01
2019-05-19T05:10:33.787Z,979
2019-05-19T05:11:36.796Z,979.03
2019-05-19T05:12:33.786Z,979.03
2019-05-19T05:13:33.757Z,979.03
2019-05-19T05:14:33.755Z,979.01
2019-05-19T05:15:33.764Z,979.03
2019-05-19T05:16:33.756Z,979.05
2019-05-19T05:17:33.755Z,978.98
2019-05-19T05:18:33.751Z,978.95
2019-05-19T05:19:33.752Z,979.01
2019-05-19T05:20:33.754Z,978.97
2019-05-19T05:21:33.752Z,979
2019-05-19T05:22:33.750Z,979.01
2019-05-19T05:23:33.747Z,978.99
2019-05-19T05:24:33.754Z,978.97
2019-05-19T05:25:33.752Z,979
2019-05-19T05:26:33.747Z,979.02
2019-05-19T05:27:33.752Z,979
2019-05-19T05:28:33.744Z,978.95
2019-05-19T05:29:33.751Z,978.99
2019-05-19T05:30:33.742Z,978.97
2019-05-19T05:31:33.740Z,978.96
2019-05-19T05:32:33.738Z,978.94
2019-05-19T05:33:33.761Z,978.94
2019-05-19T05:34:33.736Z,978.96
2019-05-19T05:35:33.741Z,978.93
2019-05-19T05:36:33.735Z,978.94
2019-05-19T05:37:33.747Z,978.95
2019-05-19T05:38:33.734Z,978.93
2019-05-19T05:39:33.744Z,978.96
2019-05-19T05:40:33.740Z,978.95
2019-05-19T05:41:33.767Z,978.92
2019-05-19T05:42:33.733Z,978.93
2019-05-19T05:43:36.761Z,978.91
2019-05-19T05:44:33.738Z,978.93
2019-05-19T05:45:33.730Z,978.9
2019-05-19T05:46:33.728Z,978.86
2019-05-19T05:47:33.732Z,978.88
2019-05-19T05:48:33.733Z,978.88
2019-05-19T05:49:33.740Z,978.89
2019-05-19T05:50:33.727Z,978.85
2019-05-19T05:51:33.854Z,978.88
2019-05-19T05:52:38.324Z,978.86
2019-05-19T05:53:33.736Z,978.9
2019-05-19T05:54:40.004Z,978.91
2019-05-19T05:55:33.738Z,978.9
2019-05-19T05:56:33.738Z,978.92
2019-05-19T05:57:33.739Z,978.94
2019-05-19T05:58:33.731Z,978.97
2019-05-19T05:59:33.735Z,978.97
2019-05-19T06:00:33.734Z,978.96
2019-05-19T06:01:33.740Z,978.98
2019-05-19T06:02:33.741Z,978.99
2019-05-19T06:03:33.740Z,979.01
2019-05-19T06:04:33.741Z,978.99
2019-05-19T06:05:33.742Z,979.03
2019-05-19T06:06:33.743Z,978.99
2019-05-19T06:07:33.742Z,978.99
2019-05-19T06:08:33.738Z,978.99
2019-05-19T06:09:33.738Z,978.97
2019-05-19T06:10:33.743Z,978.94
2019-05-19T06:11:33.796Z,978.96
2019-05-19T06:12:33.741Z,978.94
2019-05-19T06:13:33.743Z,978.96
2019-05-19T06:14:33.743Z,979
2019-05-19T06:15:35.159Z,978.94
2019-05-19T06:16:33.749Z,979
2019-05-19T06:17:33.773Z,978.99
2019-05-19T06:18:33.749Z,978.98
2019-05-19T06:19:33.761Z,979.01
2019-05-19T06:20:33.755Z,978.98
2019-05-19T06:21:33.749Z,978.97
2019-05-19T06:22:33.753Z,978.98
2019-05-19T06:23:33.755Z,978.99
2019-05-19T06:24:33.754Z,979
2019-05-19T06:25:33.886Z,978.98
2019-05-19T06:26:38.615Z,979.02
2019-05-19T06:27:33.757Z,979.01
2019-05-19T06:28:33.766Z,979.05
2019-05-19T06:29:33.759Z,978.99
2019-05-19T06:30:33.763Z,978.98
2019-05-19T06:31:33.762Z,979.05
2019-05-19T06:32:33.758Z,979.03
2019-05-19T06:33:33.764Z,979.06
2019-05-19T06:34:33.764Z,979.07
2019-05-19T06:35:33.766Z,979.09
2019-05-19T06:36:33.759Z,979.08
2019-05-19T06:37:33.761Z,979.04
2019-05-19T06:38:33.813Z,979.03
2019-05-19T06:39:33.765Z,979.06
2019-05-19T06:40:33.766Z,979.01
2019-05-19T06:41:33.760Z,979.01
2019-05-19T06:42:33.758Z,979.01
2019-05-19T06:43:33.766Z,979.03
2019-05-19T06:44:33.761Z,979
2019-05-19T06:45:33.789Z,979.05
2019-05-19T06:46:33.756Z,979
2019-05-19T06:47:33.768Z,979.04
2019-05-19T06:48:33.755Z,979.02
2019-05-19T06:49:33.757Z,979.04
2019-05-19T06:50:33.766Z,979.03
2019-05-19T06:51:33.757Z,979.03
2019-05-19T06:52:33.763Z,979.01
2019-05-19T06:53:33.762Z,979.01
2019-05-19T06:54:33.767Z,979
2019-05-19T06:55:33.768Z,979.03
2019-05-19T06:56:33.776Z,979.03
2019-05-19T06:57:33.759Z,979.04
2019-05-19T06:58:36.789Z,979.05
2019-05-19T06:59:33.759Z,979.02
2019-05-19T07:00:33.767Z,979.07
2019-05-19T07:01:33.756Z,979.02
2019-05-19T07:02:33.757Z,979.05
2019-05-19T07:03:33.765Z,979.02
2019-05-19T07:04:33.761Z,979.02
2019-05-19T07:05:33.772Z,979.03
2019-05-19T07:06:34.331Z,979.03
2019-05-19T07:07:33.764Z,979
2019-05-19T07:08:33.760Z,979.03
2019-05-19T07:09:33.786Z,979.04
2019-05-19T07:10:33.763Z,979.05
2019-05-19T07:11:33.774Z,979.11
2019-05-19T07:12:33.771Z,979.15
2019-05-19T07:13:33.767Z,979.09
2019-05-19T07:14:33.769Z,979.11
2019-05-19T07:15:33.772Z,979.1
2019-05-19T07:16:33.804Z,979.11
2019-05-19T07:17:33.770Z,979.11
2019-05-19T07:18:33.776Z,979.14
2019-05-19T07:19:33.771Z,979.07
2019-05-19T07:20:33.766Z,979.09
2019-05-19T07:21:33.764Z,979.07
2019-05-19T07:22:37.407Z,979.1
2019-05-19T07:23:33.775Z,979.09
2019-05-19T07:24:33.772Z,979.11
2019-05-19T07:25:33.765Z,979.13
2019-05-19T07:26:33.768Z,979.1
2019-05-19T07:27:33.764Z,979.15
2019-05-19T07:28:33.778Z,979.1
2019-05-19T07:29:33.772Z,979.13
2019-05-19T07:30:35.246Z,979.12
2019-05-19T07:31:33.778Z,979.05
2019-05-19T07:32:33.774Z,979.08
2019-05-19T07:33:33.778Z,979.09
2019-05-19T07:34:33.775Z,979.07
2019-05-19T07:35:33.771Z,979.1
2019-05-19T07:36:33.768Z,979.12
2019-05-19T07:37:33.770Z,979.1
2019-05-19T07:38:33.782Z,979.11
2019-05-19T07:39:33.789Z,979.11
2019-05-19T07:40:33.775Z,979.09
2019-05-19T07:41:36.806Z,979.1
2019-05-19T07:42:33.860Z,979.13
2019-05-19T07:43:33.786Z,979.12
2019-05-19T07:44:33.776Z,979.09
2019-05-19T07:45:33.778Z,979.11
2019-05-19T07:46:33.789Z,979.11
2019-05-19T07:47:33.781Z,979.08
2019-05-19T07:48:33.788Z,979.06
2019-05-19T07:49:33.784Z,979.09
2019-05-19T07:50:37.189Z,979.06
2019-05-19T07:51:33.790Z,979.1
2019-05-19T07:52:33.788Z,979.12
2019-05-19T07:53:42.463Z,979.06
2019-05-19T07:54:33.789Z,979.06
2019-05-19T07:55:33.807Z,979.02
2019-05-19T07:56:33.796Z,979.04
2019-05-19T07:57:33.850Z,979.01
2019-05-19T07:58:33.792Z,979.02
2019-05-19T07:59:33.800Z,979.05
2019-05-19T08:00:33.800Z,979.04
2019-05-19T08:01:33.810Z,979.05
2019-05-19T08:02:34.602Z,979.01
2019-05-19T08:03:33.830Z,979.05
2019-05-19T08:04:33.805Z,979.05
2019-05-19T08:05:33.808Z,979.1
2019-05-19T08:06:33.877Z,979.11
2019-05-19T08:07:33.824Z,979.14
2019-05-19T08:08:33.813Z,979.13
2019-05-19T08:09:33.812Z,979.13
2019-05-19T08:10:33.810Z,979.1
2019-05-19T08:11:33.891Z,979.14
2019-05-19T08:12:33.816Z,979.14
2019-05-19T08:13:36.847Z,979.11
2019-05-19T08:14:33.818Z,979.14
2019-05-19T08:15:33.830Z,979.16
2019-05-19T08:16:33.818Z,979.13
2019-05-19T08:17:33.823Z,979.11
2019-05-19T08:18:33.830Z,979.14
2019-05-19T08:19:33.821Z,979.16
2019-05-19T08:20:33.821Z,979.18
2019-05-19T08:21:33.825Z,979.23
2019-05-19T08:22:33.823Z,979.24
2019-05-19T08:23:33.828Z,979.26
2019-05-19T08:24:33.824Z,979.27
2019-05-19T08:25:33.835Z,979.24
2019-05-19T08:26:33.831Z,979.21
2019-05-19T08:27:33.829Z,979.23
2019-05-19T08:28:33.828Z,979.25
2019-05-19T08:29:33.830Z,979.25
2019-05-19T08:30:33.838Z,979.32
2019-05-19T08:31:33.832Z,979.28
2019-05-19T08:32:33.853Z,979.31
2019-05-19T08:33:33.858Z,979.24
2019-05-19T08:34:33.843Z,979.19
2019-05-19T08:35:33.842Z,979.16
2019-05-19T08:36:33.846Z,979.21
2019-05-19T08:37:33.849Z,979.13
2019-05-19T08:38:33.851Z,979.1
2019-05-19T08:39:33.862Z,979.09
2019-05-19T08:40:33.995Z,979.07
2019-05-19T08:41:33.871Z,979.11
2019-05-19T08:42:33.875Z,979.09
2019-05-19T08:43:33.878Z,979.07
2019-05-19T08:44:33.909Z,979.02
2019-05-19T08:45:35.294Z,978.96
2019-05-19T08:46:33.879Z,978.95
2019-05-19T08:47:33.883Z,979.03
2019-05-19T08:48:33.893Z,979.03
2019-05-19T08:49:33.929Z,979.12
2019-05-19T08:50:33.896Z,979.19
2019-05-19T08:51:33.900Z,979.13
2019-05-19T08:52:33.901Z,979.1
2019-05-19T08:53:33.920Z,979.09
2019-05-19T08:54:33.911Z,979.06
2019-05-19T08:55:33.919Z,979.09
2019-05-19T08:56:36.955Z,978.99
2019-05-19T08:57:33.925Z,979
2019-05-19T08:58:33.937Z,979.01
2019-05-19T08:59:33.943Z,979.03
2019-05-19T09:00:37.729Z,979
2019-05-19T09:01:33.939Z,979
2019-05-19T09:02:33.942Z,979.05
2019-05-19T09:03:33.954Z,979.04
2019-05-19T09:04:33.959Z,979.02
2019-05-19T09:05:33.960Z,979.04
2019-05-19T09:06:33.959Z,979.01
2019-05-19T09:07:33.966Z,978.96
2019-05-19T09:08:33.966Z,978.97
2019-05-19T09:09:33.970Z,978.9
2019-05-19T09:10:33.973Z,978.91
2019-05-19T09:11:33.975Z,978.93
2019-05-19T09:12:33.979Z,978.94
2019-05-19T09:13:33.994Z,978.93
2019-05-19T09:14:33.987Z,978.91
2019-05-19T09:15:33.992Z,978.89
2019-05-19T09:16:34.014Z,978.82
2019-05-19T09:17:34.202Z,978.78
2019-05-19T09:18:34.005Z,978.76
2019-05-19T09:19:34.006Z,978.7
2019-05-19T09:20:34.011Z,978.67
2019-05-19T09:21:34.054Z,978.72
2019-05-19T09:22:34.017Z,978.69
2019-05-19T09:23:34.016Z,978.71
2019-05-19T09:24:37.105Z,978.66
2019-05-19T09:25:34.027Z,978.7
2019-05-19T09:26:34.029Z,978.76
2019-05-19T09:27:34.029Z,978.77
2019-05-19T09:28:37.064Z,978.72
2019-05-19T09:29:34.038Z,978.71
2019-05-19T09:30:34.043Z,978.66
2019-05-19T09:31:34.043Z,978.65
2019-05-19T09:32:34.046Z,978.62
2019-05-19T09:33:34.049Z,978.67
2019-05-19T09:34:34.050Z,978.71
2019-05-19T09:35:34.060Z,978.74
2019-05-19T09:36:34.072Z,978.69
2019-05-19T09:37:34.063Z,978.69
2019-05-19T09:38:34.069Z,978.67
2019-05-19T09:39:34.078Z,978.66
2019-05-19T09:40:34.194Z,978.83
2019-05-19T09:41:34.073Z,978.8
2019-05-19T09:42:34.082Z,978.76
2019-05-19T09:43:34.081Z,978.77
2019-05-19T09:44:34.094Z,978.79
2019-05-19T09:45:34.083Z,978.74
2019-05-19T09:46:34.086Z,978.8
2019-05-19T09:47:34.121Z,978.8
2019-05-19T09:48:34.093Z,978.77
2019-05-19T09:49:34.097Z,978.75
2019-05-19T09:50:34.097Z,978.74
2019-05-19T09:51:34.171Z,978.75
2019-05-19T09:52:34.127Z,978.72
2019-05-19T09:53:34.108Z,978.69
2019-05-19T09:54:44.486Z,978.69
2019-05-19T09:55:34.114Z,978.68
2019-05-19T09:56:34.115Z,978.71
2019-05-19T09:57:34.122Z,978.69
2019-05-19T09:58:34.123Z,978.71
2019-05-19T09:59:34.130Z,978.67
2019-05-19T10:00:35.554Z,978.63
2019-05-19T10:01:34.141Z,978.66
2019-05-19T10:02:34.141Z,978.69
2019-05-19T10:03:34.140Z,978.66
2019-05-19T10:04:34.150Z,978.64
2019-05-19T10:05:34.170Z,978.68
2019-05-19T10:06:34.306Z,978.64
2019-05-19T10:07:34.161Z,978.64
2019-05-19T10:08:34.156Z,978.67
2019-05-19T10:09:34.166Z,978.63
2019-05-19T10:10:34.162Z,978.53
2019-05-19T10:11:37.203Z,978.55
2019-05-19T10:12:34.170Z,978.56
2019-05-19T10:13:34.173Z,978.54
2019-05-19T10:14:34.177Z,978.59
2019-05-19T10:15:34.183Z,978.63
2019-05-19T10:16:34.189Z,978.64
2019-05-19T10:17:34.186Z,978.63
2019-05-19T10:18:34.186Z,978.67
2019-05-19T10:19:34.195Z,978.72
2019-05-19T10:20:34.195Z,978.69
2019-05-19T10:21:34.200Z,978.65
2019-05-19T10:22:34.206Z,978.66
2019-05-19T10:23:34.204Z,978.69
2019-05-19T10:24:34.254Z,978.69
2019-05-19T10:25:34.209Z,978.64
2019-05-19T10:26:34.212Z,978.61
2019-05-19T10:27:34.218Z,978.56
2019-05-19T10:28:34.273Z,978.55
2019-05-19T10:29:34.221Z,978.58
2019-05-19T10:30:34.225Z,978.56
2019-05-19T10:31:34.232Z,978.61
2019-05-19T10:32:34.454Z,978.61
2019-05-19T10:33:34.235Z,978.58
2019-05-19T10:34:34.238Z,978.63
2019-05-19T10:35:34.242Z,978.59
2019-05-19T10:36:34.243Z,978.57
2019-05-19T10:37:34.249Z,978.59
2019-05-19T10:38:34.252Z,978.55
2019-05-19T10:39:34.252Z,978.58
2019-05-19T10:40:34.259Z,978.49
2019-05-19T10:41:34.324Z,978.49
2019-05-19T10:42:34.330Z,978.5
2019-05-19T10:43:36.672Z,978.49
2019-05-19T10:44:34.276Z,978.45
2019-05-19T10:45:34.273Z,978.41
2019-05-19T10:46:34.278Z,978.47
2019-05-19T10:47:34.278Z,978.44
2019-05-19T10:48:34.316Z,978.52
2019-05-19T10:49:34.287Z,978.47
2019-05-19T10:50:34.295Z,978.49
2019-05-19T10:51:34.308Z,978.38
2019-05-19T10:52:34.314Z,978.39
2019-05-19T10:53:34.317Z,978.36
2019-05-19T10:54:34.310Z,978.32
2019-05-19T10:55:36.746Z,978.28
2019-05-19T10:56:34.310Z,978.27
2019-05-19T10:57:34.311Z,978.26
2019-05-19T10:58:34.316Z,978.27
2019-05-19T10:59:34.319Z,978.29
2019-05-19T11:00:34.322Z,978.3
2019-05-19T11:01:34.421Z,978.26
2019-05-19T11:02:34.327Z,978.3
2019-05-19T11:03:34.341Z,978.31
2019-05-19T11:04:34.372Z,978.38
2019-05-19T11:05:34.340Z,978.45
2019-05-19T11:06:34.342Z,978.34
2019-05-19T11:07:34.364Z,978.32
2019-05-19T11:08:34.349Z,978.18
2019-05-19T11:09:34.359Z,978.08
2019-05-19T11:10:34.370Z,978.04
2019-05-19T11:11:34.367Z,978.14
2019-05-19T11:12:34.373Z,978.04
2019-05-19T11:13:34.377Z,978.13
2019-05-19T11:14:34.380Z,978.09
2019-05-19T11:15:35.791Z,978.15
2019-05-19T11:16:34.388Z,978.15
2019-05-19T11:17:34.389Z,978.15
2019-05-19T11:18:34.389Z,978.21
2019-05-19T11:19:34.382Z,978.2
2019-05-19T11:20:34.386Z,978.14
2019-05-19T11:21:34.386Z,978.09
2019-05-19T11:22:34.391Z,978.03
2019-05-19T11:23:34.398Z,978.11
2019-05-19T11:24:34.395Z,978.18
2019-05-19T11:25:34.593Z,978.12
2019-05-19T11:26:37.434Z,978.17
2019-05-19T11:27:34.402Z,978.11
2019-05-19T11:28:34.405Z,978.08
2019-05-19T11:29:34.409Z,978.08
2019-05-19T11:30:34.411Z,978.02
2019-05-19T11:31:34.426Z,978.06
2019-05-19T11:32:34.417Z,978.12
2019-05-19T11:33:34.424Z,978.15
2019-05-19T11:34:34.422Z,978.15
2019-05-19T11:35:34.427Z,978.16
2019-05-19T11:36:34.453Z,978.16
2019-05-19T11:37:34.442Z,978.12
2019-05-19T11:38:34.449Z,978.09
2019-05-19T11:39:34.443Z,978.12
2019-05-19T11:40:34.454Z,978.13
2019-05-19T11:41:34.444Z,978.16
2019-05-19T11:42:34.450Z,978.11
2019-05-19T11:43:34.464Z,978.11
2019-05-19T11:44:34.469Z,978.17
2019-05-19T11:45:34.456Z,978.09
2019-05-19T11:46:34.474Z,978.18
2019-05-19T11:47:34.664Z,978.27
2019-05-19T11:48:34.465Z,978.19
2019-05-19T11:49:34.469Z,978.26
2019-05-19T11:50:34.482Z,978.25
2019-05-19T11:51:34.475Z,978.23
2019-05-19T11:52:34.481Z,978.21
2019-05-19T11:53:34.482Z,978.23
2019-05-19T11:54:34.484Z,978.18
2019-05-19T11:55:34.483Z,978.12
2019-05-19T11:56:34.487Z,978.13
2019-05-19T11:57:34.493Z,978.18
2019-05-19T11:58:37.526Z,978.21
2019-05-19T11:59:34.503Z,978.28
2019-05-19T12:00:34.500Z,978.24
2019-05-19T12:01:34.519Z,978.19
2019-05-19T12:02:34.506Z,978.15
2019-05-19T12:03:34.550Z,978.08
2019-05-19T12:04:34.514Z,978.04
2019-05-19T12:05:34.610Z,978.01
2019-05-19T12:06:39.083Z,977.97
2019-05-19T12:07:34.531Z,977.98
2019-05-19T12:08:34.532Z,978.08
2019-05-19T12:09:34.529Z,978.08
2019-05-19T12:10:34.531Z,978.03
2019-05-19T12:11:34.534Z,978.08
2019-05-19T12:12:34.536Z,978.07
2019-05-19T12:13:35.164Z,978.09
2019-05-19T12:14:34.590Z,978.17
2019-05-19T12:15:34.548Z,978.17
2019-05-19T12:16:34.556Z,978.07
2019-05-19T12:17:34.554Z,978.07
2019-05-19T12:18:34.555Z,978.1
2019-05-19T12:19:34.561Z,978.07
2019-05-19T12:20:34.562Z,978.1
2019-05-19T12:21:34.565Z,978.04
2019-05-19T12:22:34.567Z,978.03
2019-05-19T12:23:34.577Z,978
2019-05-19T12:24:34.577Z,977.97
2019-05-19T12:25:34.576Z,977.91
2019-05-19T12:26:34.960Z,977.94
2019-05-19T12:27:34.583Z,977.9
2019-05-19T12:28:34.589Z,977.91
2019-05-19T12:29:34.588Z,978.01
2019-05-19T12:30:36.010Z,977.93
2019-05-19T12:31:34.607Z,977.99
2019-05-19T12:32:34.625Z,978.02